Hovedside
METAR-TAF:

METAR-TAF

Lufthavner :

Kimberley, Sør-Afrika

breddegrad: 28-48S, lengdegrad: 024-46E, høyde over havet: 1198 m

Gjeldene værobservasjon

Denne rapporten ble laget for 26 minutter siden, klokken 02:00 UTC
Vind 1 kt fra Øst-sørøst
Temperatur 5°C
Luftfuktighet 100%
Trykk 1028 hPa

METAR: FAKM 140200Z AUTO 12001KT //// // ////// 05/05 Q1028

Tid: 04:26 (02:26 UTC)

Varsel

Denne rapporten ble laget for 17 timer og 26 minutter siden, klokken 09:00 UTC
Varsel gyldig fra 13. klokken 10 UTC til 13. klokken 18 UTC
Vind 3 kt fra skiftende retning
Sikt 10 km eller mer
ingen skyer under 1500 m og ingen bygeskyer

TAF: FAKM 130900Z 1310/1318 VRB03KT CAVOK TX22/1312Z TN10/1318Z

Værobservasjoner og værvarsel for over 4000 flyplasser (METAR- og TAF-rapporter).

Tilgjengelige stasjoner er representert av de røde og gule prikkene på kartet.

Hold musepekeren over prikken for å se navnet på stasjonen.

Klikk så for å se værobservasjoner og -varsler.

For å forandre kartet kan du klikke på den grønne knappen med svart kryss for å zoome inn, på den grønne knappen med strek for å zoome ut, eller på de grønne pilene for å se tilstøtende kart.


METAR-TAF: